Pagina principale
METAR-TAF:

METAR-TAF

Aeroporti :

Curaçao, Antille olandesi

Aeroporto Internazionale di Hato

latitudine: 12-12N, longitudine: 068-58W, altezza: 9 m

Osservazione

Il bollettino è stato emesso 1 ora e 2 minuti fa, alle 16:00 UTC
Vento 12 kt da est
Temperature 28°C
Umidità 74%
Pressione 1015 hPa
Visibilità 10 km o più
Nubi sparse ad un'altezza di 2300 ft

METAR: TNCC 191600Z 10012KT 9999 SCT023 28/23 Q1015 NOSIG

Ora: 13:02 (17:02 UTC)

Previsione

Il bollettino è stato emesso 7 ore e 2 minuti fa, alle 10:00 UTC
Previsione valida dal 19 alle 12 UTC al 20 alle 12 UTC
Vento 15 kt da est
Visibilità 10 km o più
Nubi sparse ad un'altezza di 2000 ft

TAF: TNCC 191000Z 1912/2012 10015KT 9999 SCT020

Osservazioni e previsioni meteorologiche di più di 4000 aeroporti (messaggi METAR e TAF).

Le stazioni disponibili sono rappresentate dai dischi gialli e rossi sulla carta.

Puntare il mouse per vedere il nome della stazione.

Clicca sopra per visualizzare le osservazioni e previsioni meteorologiche.

Per cambiare la mappa : fare clic sui pulsanti verdi con una croce nera per ingrandire, il pulsante verde con un trattino per diminuire, o sulla freccia verde per le mappe adiacenti.


METAR-TAF: